createdAt,value
2023-02-15T00:00:36.941Z,4.90
2023-02-15T00:03:05.273Z,4.90
2023-02-15T00:05:33.652Z,4.90
2023-02-15T00:08:01.815Z,4.90
2023-02-15T00:10:34.988Z,5.00
2023-02-15T00:13:04.618Z,4.90
2023-02-15T00:15:32.759Z,4.90
2023-02-15T00:18:00.978Z,4.90
2023-02-15T00:20:29.303Z,4.90
2023-02-15T00:22:57.548Z,4.90
2023-02-15T00:25:25.693Z,4.90
2023-02-15T00:27:53.890Z,5.00
2023-02-15T00:30:23.481Z,5.00
2023-02-15T00:32:51.732Z,4.90
2023-02-15T00:35:20.004Z,5.00
2023-02-15T00:37:48.728Z,4.90
2023-02-15T00:40:17.043Z,4.90
2023-02-15T00:42:45.388Z,4.90
2023-02-15T00:45:13.607Z,4.90
2023-02-15T00:47:43.179Z,4.90
2023-02-15T00:50:11.837Z,4.80
2023-02-15T00:52:40.043Z,4.90
2023-02-15T00:55:09.211Z,4.90
2023-02-15T00:57:37.384Z,4.90
2023-02-15T01:00:06.750Z,4.90
2023-02-15T01:02:34.974Z,4.90
2023-02-15T01:05:06.977Z,5.00
2023-02-15T01:07:35.170Z,5.00
2023-02-15T01:10:03.475Z,5.00
2023-02-15T01:12:31.620Z,5.00
2023-02-15T01:14:59.846Z,4.90
2023-02-15T01:17:28.321Z,4.90
2023-02-15T01:19:57.239Z,4.90
2023-02-15T01:22:27.083Z,5.00
2023-02-15T01:24:56.467Z,5.00
2023-02-15T01:27:24.630Z,4.90
2023-02-15T01:29:52.861Z,4.90
2023-02-15T01:32:21.054Z,4.90
2023-02-15T01:34:49.253Z,4.90
2023-02-15T01:37:17.369Z,4.90
2023-02-15T01:39:46.947Z,4.90
2023-02-15T01:42:15.797Z,4.90
2023-02-15T01:44:53.064Z,4.90
2023-02-15T01:50:05.057Z,4.90
2023-02-15T01:52:37.923Z,4.90
2023-02-15T01:55:09.315Z,4.90
2023-02-15T01:57:37.968Z,4.90
2023-02-15T02:00:10.565Z,4.90
2023-02-15T02:02:42.604Z,4.90
2023-02-15T02:05:10.778Z,4.90
2023-02-15T02:07:42.728Z,4.90
2023-02-15T02:10:14.542Z,4.90
2023-02-15T02:12:44.359Z,4.90
2023-02-15T02:15:12.993Z,4.90
2023-02-15T02:17:55.288Z,4.90
2023-02-15T02:20:41.091Z,4.90
2023-02-15T02:23:36.630Z,4.90
2023-02-15T02:26:47.707Z,4.90
2023-02-15T02:29:47.225Z,4.90
2023-02-15T02:32:42.195Z,4.90
2023-02-15T02:35:19.254Z,4.90
2023-02-15T02:37:55.575Z,4.90
2023-02-15T02:40:32.822Z,4.90
2023-02-15T02:43:06.422Z,4.90
2023-02-15T02:45:40.951Z,4.90
2023-02-15T02:48:14.532Z,4.90
2023-02-15T02:50:46.644Z,5.00
2023-02-15T02:53:14.867Z,4.90
2023-02-15T02:55:47.832Z,4.90
2023-02-15T02:58:20.569Z,4.90
2023-02-15T03:00:53.140Z,4.90
2023-02-15T03:03:27.594Z,4.90
2023-02-15T03:06:02.515Z,4.90
2023-02-15T03:08:38.079Z,4.90
2023-02-15T03:11:06.834Z,4.90
2023-02-15T03:13:36.436Z,5.00
2023-02-15T03:16:28.226Z,4.90
2023-02-15T03:19:01.223Z,4.90
2023-02-15T03:21:42.438Z,4.90
2023-02-15T03:24:16.423Z,4.90
2023-02-15T03:26:48.068Z,4.90
2023-02-15T03:29:19.042Z,4.90
2023-02-15T03:31:55.408Z,4.80
2023-02-15T03:34:23.737Z,4.90
2023-02-15T03:37:00.125Z,4.90
2023-02-15T03:39:34.576Z,4.90
2023-02-15T03:42:10.777Z,4.90
2023-02-15T03:44:48.109Z,4.90
2023-02-15T03:47:21.388Z,4.90
2023-02-15T03:49:54.175Z,4.90
2023-02-15T03:52:25.521Z,4.90
2023-02-15T03:54:54.048Z,4.90
2023-02-15T03:57:42.524Z,4.90
2023-02-15T04:00:33.928Z,4.90
2023-02-15T04:03:24.859Z,4.90
2023-02-15T04:05:53.019Z,5.00
2023-02-15T04:08:42.724Z,5.00
2023-02-15T04:11:09.984Z,4.90
2023-02-15T04:13:38.125Z,5.00
2023-02-15T04:16:06.619Z,4.90
2023-02-15T04:18:57.863Z,4.90
2023-02-15T04:21:45.478Z,5.00
2023-02-15T04:24:33.274Z,5.00
2023-02-15T04:27:02.128Z,4.90
2023-02-15T04:29:30.493Z,4.90
2023-02-15T04:32:00.506Z,4.90
2023-02-15T04:34:28.731Z,4.90
2023-02-15T04:36:57.094Z,5.00
2023-02-15T04:39:26.693Z,4.90
2023-02-15T04:41:54.900Z,4.90
2023-02-15T04:44:23.045Z,4.90
2023-02-15T04:46:51.325Z,4.90
2023-02-15T04:49:19.465Z,4.90
2023-02-15T04:51:47.729Z,4.90
2023-02-15T04:54:15.886Z,4.90
2023-02-15T04:56:45.886Z,4.90
2023-02-15T04:59:15.044Z,4.90
2023-02-15T05:01:43.449Z,4.90
2023-02-15T05:04:11.965Z,4.90
2023-02-15T05:06:42.372Z,4.90
2023-02-15T05:09:10.771Z,4.90
2023-02-15T05:11:38.935Z,4.90
2023-02-15T05:14:08.702Z,4.90
2023-02-15T05:16:37.108Z,4.90
2023-02-15T05:19:05.590Z,4.90
2023-02-15T05:21:34.350Z,4.90
2023-02-15T05:24:22.490Z,4.90
2023-02-15T05:27:10.352Z,4.90
2023-02-15T05:29:39.917Z,4.90
2023-02-15T05:32:08.214Z,4.90
2023-02-15T05:34:36.404Z,4.90
2023-02-15T05:37:04.625Z,4.90
2023-02-15T05:39:32.798Z,4.80
2023-02-15T05:42:01.639Z,4.80
2023-02-15T05:44:29.897Z,4.90
2023-02-15T05:46:59.414Z,4.90
2023-02-15T05:49:27.664Z,4.80
2023-02-15T05:51:55.886Z,4.80
2023-02-15T05:54:24.098Z,4.80
2023-02-15T05:56:52.341Z,4.80
2023-02-15T05:59:20.500Z,4.80
2023-02-15T06:01:48.738Z,4.90
2023-02-15T06:04:18.264Z,4.80
2023-02-15T06:06:46.532Z,4.80
2023-02-15T06:09:15.088Z,4.90
2023-02-15T06:11:43.254Z,4.90
2023-02-15T06:14:13.809Z,4.80
2023-02-15T06:16:41.939Z,4.80
2023-02-15T06:19:10.144Z,4.70
2023-02-15T06:21:39.704Z,4.70
2023-02-15T06:24:07.990Z,4.70
2023-02-15T06:26:36.173Z,4.70
2023-02-15T06:29:04.674Z,4.70
2023-02-15T06:31:33.011Z,4.70
2023-02-15T06:34:02.822Z,4.70
2023-02-15T06:36:32.595Z,4.70
2023-02-15T06:39:03.215Z,4.70
2023-02-15T06:41:31.393Z,4.70
2023-02-15T06:43:59.654Z,4.80
2023-02-15T06:46:27.976Z,4.80
2023-02-15T06:48:56.251Z,4.80
2023-02-15T06:51:24.403Z,4.80
2023-02-15T06:53:52.635Z,4.70
2023-02-15T06:56:22.164Z,4.70
2023-02-15T06:58:51.039Z,4.70
2023-02-15T07:01:19.326Z,4.70
2023-02-15T07:03:47.889Z,4.70
2023-02-15T07:06:16.051Z,4.70
2023-02-15T07:08:44.253Z,4.80
2023-02-15T07:11:29.766Z,4.80
2023-02-15T07:13:59.326Z,4.80
2023-02-15T07:16:27.635Z,4.80
2023-02-15T07:18:55.867Z,4.80
2023-02-15T07:21:24.038Z,4.80
2023-02-15T07:23:52.208Z,4.80
2023-02-15T07:26:20.489Z,4.70
2023-02-15T07:28:48.695Z,4.70
2023-02-15T07:31:18.461Z,4.70
2023-02-15T07:33:46.727Z,4.70
2023-02-15T07:36:17.556Z,4.80
2023-02-15T07:38:45.875Z,4.80
2023-02-15T07:41:15.716Z,4.80
2023-02-15T07:43:45.551Z,4.90
2023-02-15T07:46:15.938Z,4.80
2023-02-15T07:48:46.560Z,4.80
2023-02-15T07:51:15.519Z,4.90
2023-02-15T07:53:44.110Z,4.90
2023-02-15T07:56:14.552Z,4.90
2023-02-15T07:58:56.612Z,5.00
2023-02-15T08:01:26.955Z,4.90
2023-02-15T08:03:57.916Z,4.90
2023-02-15T08:06:28.563Z,4.90
2023-02-15T08:08:56.920Z,4.90
2023-02-15T08:11:34.825Z,5.00
2023-02-15T08:14:05.674Z,4.90
2023-02-15T08:16:36.853Z,4.90
2023-02-15T08:19:09.146Z,4.90
2023-02-15T08:21:38.942Z,4.90
2023-02-15T08:24:08.242Z,4.90
2023-02-15T08:26:38.321Z,5.00
2023-02-15T08:29:08.292Z,5.00
2023-02-15T08:31:38.696Z,5.00
2023-02-15T08:34:12.365Z,5.00
2023-02-15T08:36:40.666Z,5.00
2023-02-15T08:39:09.391Z,5.00
2023-02-15T08:41:39.889Z,5.00
2023-02-15T08:44:10.564Z,5.00
2023-02-15T08:46:40.848Z,4.90
2023-02-15T08:49:15.378Z,5.00
2023-02-15T08:51:44.170Z,4.90
2023-02-15T08:54:16.203Z,4.90
2023-02-15T08:56:45.899Z,4.80
2023-02-15T08:59:16.133Z,4.80
2023-02-15T09:01:44.712Z,4.80
2023-02-15T09:04:16.642Z,4.80
2023-02-15T09:06:49.406Z,4.80
2023-02-15T09:09:18.653Z,4.80
2023-02-15T09:11:49.295Z,4.90
2023-02-15T09:14:21.025Z,4.90
2023-02-15T09:16:52.606Z,4.90
2023-02-15T09:19:23.980Z,5.00
2023-02-15T09:21:52.593Z,5.00
2023-02-15T09:24:21.152Z,5.00
2023-02-15T09:26:50.748Z,4.90
2023-02-15T09:29:20.433Z,4.90
2023-02-15T09:31:50.963Z,4.90
2023-02-15T09:34:21.822Z,4.90
2023-02-15T09:36:50.700Z,4.80
2023-02-15T09:39:24.639Z,4.90
2023-02-15T09:42:34.207Z,4.80
2023-02-15T09:45:17.562Z,4.90
2023-02-15T09:48:13.624Z,4.90
2023-02-15T09:50:52.023Z,4.90
2023-02-15T09:53:40.025Z,4.90
2023-02-15T09:56:17.688Z,4.90
2023-02-15T09:58:56.483Z,4.90
2023-02-15T10:01:36.935Z,4.90
2023-02-15T10:04:33.677Z,4.90
2023-02-15T10:07:16.258Z,4.90
2023-02-15T10:09:58.878Z,4.90
2023-02-15T10:12:43.663Z,4.80
2023-02-15T10:15:29.411Z,4.80
2023-02-15T10:18:09.621Z,4.80
2023-02-15T10:20:45.754Z,4.90
2023-02-15T10:23:52.486Z,4.80
2023-02-15T10:26:23.856Z,4.90
2023-02-15T10:28:53.552Z,4.80
2023-02-15T10:31:37.886Z,4.80
2023-02-15T10:34:17.654Z,4.80
2023-02-15T10:37:05.440Z,4.80
2023-02-15T10:39:43.994Z,4.80
2023-02-15T10:42:20.431Z,4.80
2023-02-15T10:45:05.480Z,4.80
2023-02-15T10:48:06.143Z,4.80
2023-02-15T10:50:48.528Z,4.80
2023-02-15T10:53:36.050Z,4.80
2023-02-15T10:56:16.541Z,4.70
2023-02-15T10:59:05.732Z,4.70
2023-02-15T11:01:42.855Z,4.80
2023-02-15T11:04:45.672Z,4.80
2023-02-15T11:07:20.488Z,4.80
2023-02-15T11:09:51.774Z,4.80
2023-02-15T11:12:24.539Z,4.90
2023-02-15T11:14:59.620Z,4.90
2023-02-15T11:17:33.011Z,4.90
2023-02-15T11:20:10.005Z,4.90
2023-02-15T11:22:38.398Z,4.90
2023-02-15T11:25:19.300Z,5.00
2023-02-15T11:27:50.894Z,4.90
2023-02-15T11:30:23.152Z,4.80
2023-02-15T11:32:55.424Z,4.90
2023-02-15T11:35:31.733Z,4.80
2023-02-15T11:38:07.186Z,4.90
2023-02-15T11:40:37.820Z,4.90
2023-02-15T11:43:13.571Z,5.00
2023-02-15T11:45:44.814Z,5.00
2023-02-15T11:48:15.000Z,5.00
2023-02-15T11:50:44.998Z,5.00
2023-02-15T11:53:16.445Z,5.00
2023-02-15T11:55:46.530Z,5.10
2023-02-15T11:58:25.146Z,5.10
2023-02-15T12:00:58.580Z,5.00
2023-02-15T12:03:45.564Z,5.10
2023-02-15T12:06:28.748Z,5.10
2023-02-15T12:09:03.285Z,5.10
2023-02-15T12:11:37.269Z,5.10
2023-02-15T12:14:09.297Z,5.20
2023-02-15T12:16:44.765Z,5.20
2023-02-15T12:19:30.618Z,5.20
2023-02-15T12:22:00.124Z,5.20
2023-02-15T12:24:34.446Z,5.20
2023-02-15T12:27:06.094Z,5.20
2023-02-15T12:29:41.840Z,5.10
2023-02-15T12:32:19.227Z,5.10
2023-02-15T12:34:48.642Z,5.10
2023-02-15T12:37:23.742Z,5.00
2023-02-15T12:39:57.515Z,5.00
2023-02-15T12:42:26.676Z,5.10
2023-02-15T12:45:02.384Z,5.10
2023-02-15T12:47:32.328Z,5.10
2023-02-15T12:50:24.653Z,5.20
2023-02-15T12:53:07.342Z,5.20
2023-02-15T12:55:35.635Z,5.10
2023-02-15T12:58:17.623Z,5.10
2023-02-15T13:00:47.935Z,5.10
2023-02-15T13:03:21.776Z,5.10
2023-02-15T13:05:54.204Z,5.10
2023-02-15T13:08:24.400Z,5.10
2023-02-15T13:10:58.068Z,5.10
2023-02-15T13:13:30.974Z,5.10
2023-02-15T13:16:04.542Z,5.20
2023-02-15T13:18:35.729Z,5.10
2023-02-15T13:21:12.255Z,5.10
2023-02-15T13:23:43.390Z,5.10
2023-02-15T13:26:17.684Z,5.10
2023-02-15T13:28:49.540Z,5.10
2023-02-15T13:31:23.257Z,5.10
2023-02-15T13:33:55.182Z,5.10
2023-02-15T13:36:29.794Z,5.10
2023-02-15T13:39:14.070Z,5.10
2023-02-15T13:41:53.901Z,5.10
2023-02-15T13:44:33.862Z,5.10
2023-02-15T13:47:33.068Z,5.20
2023-02-15T13:50:16.837Z,5.10
2023-02-15T13:52:50.150Z,5.10
2023-02-15T13:56:23.185Z,5.20
2023-02-15T13:59:19.896Z,5.20
2023-02-15T14:04:57.460Z,5.20
2023-02-15T14:07:58.799Z,5.20
2023-02-15T14:11:07.288Z,5.20
2023-02-15T14:14:17.560Z,5.10
2023-02-15T14:17:06.791Z,5.20
2023-02-15T14:19:42.307Z,5.10
2023-02-15T14:22:22.840Z,5.10
2023-02-15T14:25:05.482Z,5.10
2023-02-15T14:27:47.852Z,5.00
2023-02-15T14:30:21.457Z,5.00
2023-02-15T14:32:54.856Z,5.00
2023-02-15T14:35:28.813Z,5.00
2023-02-15T14:38:04.662Z,4.90
2023-02-15T14:41:01.887Z,4.90
2023-02-15T14:43:43.068Z,4.90
2023-02-15T14:46:18.884Z,5.00
2023-02-15T14:48:50.400Z,4.90
2023-02-15T14:51:59.952Z,4.80
2023-02-15T14:54:57.182Z,4.80
2023-02-15T14:57:57.696Z,4.70
2023-02-15T15:00:40.217Z,4.80
2023-02-15T15:03:25.558Z,4.70
2023-02-15T15:05:59.030Z,4.70
2023-02-15T15:08:38.417Z,4.70
2023-02-15T15:11:44.624Z,4.70
2023-02-15T15:14:41.812Z,4.70
2023-02-15T15:17:13.916Z,4.70
2023-02-15T15:20:14.558Z,4.70
2023-02-15T15:22:44.263Z,4.70
2023-02-15T15:25:52.995Z,4.70
2023-02-15T15:28:57.738Z,4.70
2023-02-15T15:31:33.350Z,4.70
2023-02-15T15:34:41.737Z,4.60
2023-02-15T15:37:48.862Z,4.60
2023-02-15T15:40:50.713Z,4.60
2023-02-15T15:44:04.588Z,4.50
2023-02-15T15:47:10.407Z,4.60
2023-02-15T15:49:41.158Z,4.60
2023-02-15T15:52:16.292Z,4.60
2023-02-15T15:54:46.613Z,4.60
2023-02-15T15:57:20.987Z,4.60
2023-02-15T15:59:49.585Z,4.50
2023-02-15T16:02:18.893Z,4.50
2023-02-15T16:04:49.126Z,4.50
2023-02-15T16:07:27.506Z,4.60
2023-02-15T16:09:57.034Z,4.70
2023-02-15T16:12:27.012Z,4.60
2023-02-15T16:14:56.340Z,4.60
2023-02-15T16:17:26.179Z,4.60
2023-02-15T16:20:00.814Z,4.50
2023-02-15T16:22:30.207Z,4.50
2023-02-15T16:25:36.732Z,4.50
2023-02-15T16:28:09.575Z,4.50
2023-02-15T16:30:40.315Z,4.50
2023-02-15T16:33:10.516Z,4.50
2023-02-15T16:35:42.446Z,4.40
2023-02-15T16:38:12.857Z,4.40
2023-02-15T16:40:52.671Z,4.40
2023-02-15T16:43:26.473Z,4.30
2023-02-15T16:46:00.545Z,4.30
2023-02-15T16:48:29.766Z,4.30
2023-02-15T16:51:00.204Z,4.30
2023-02-15T16:53:30.430Z,4.20
2023-02-15T16:56:02.185Z,4.20
2023-02-15T16:58:34.413Z,4.20
2023-02-15T17:01:04.704Z,4.20
2023-02-15T17:03:33.202Z,4.20
2023-02-15T17:06:04.250Z,4.10
2023-02-15T17:08:35.005Z,4.10
2023-02-15T17:11:17.179Z,4.10
2023-02-15T17:14:15.403Z,4.10
2023-02-15T17:16:50.525Z,4.00
2023-02-15T17:19:22.933Z,4.00
2023-02-15T17:21:55.376Z,4.00
2023-02-15T17:24:36.164Z,3.90
2023-02-15T17:27:09.053Z,3.90
2023-02-15T17:29:43.176Z,3.90
2023-02-15T17:32:21.206Z,3.90
2023-02-15T17:34:59.092Z,3.90
2023-02-15T17:37:32.384Z,3.90
2023-02-15T17:40:02.909Z,3.90
2023-02-15T17:42:31.126Z,3.90
2023-02-15T17:44:59.753Z,3.90
2023-02-15T17:47:30.167Z,4.00
2023-02-15T17:49:58.531Z,4.00
2023-02-15T17:52:31.692Z,4.10
2023-02-15T17:55:17.867Z,4.10
2023-02-15T17:57:46.190Z,4.10
2023-02-15T18:00:35.561Z,4.10
2023-02-15T18:03:22.696Z,4.10
2023-02-15T18:06:08.227Z,4.10
2023-02-15T18:08:55.517Z,4.10
2023-02-15T18:11:37.018Z,4.00
2023-02-15T18:14:06.130Z,4.00
2023-02-15T18:16:36.582Z,3.90
2023-02-15T18:19:06.395Z,3.80
2023-02-15T18:21:34.920Z,3.80
2023-02-15T18:24:04.751Z,3.80
2023-02-15T18:26:33.073Z,3.70
2023-02-15T18:29:01.274Z,3.80
2023-02-15T18:31:29.729Z,3.80
2023-02-15T18:34:00.638Z,3.70
2023-02-15T18:36:33.269Z,3.70
2023-02-15T18:39:07.751Z,3.70
2023-02-15T18:41:38.562Z,3.80
2023-02-15T18:44:12.822Z,3.80
2023-02-15T18:46:41.067Z,3.80
2023-02-15T18:49:09.262Z,3.70
2023-02-15T18:51:40.242Z,3.80
2023-02-15T18:54:18.257Z,3.80
2023-02-15T18:56:52.710Z,3.70
2023-02-15T18:59:21.096Z,3.70
2023-02-15T19:01:49.355Z,3.70
2023-02-15T19:04:18.307Z,3.80
2023-02-15T19:06:48.605Z,3.80
2023-02-15T19:09:19.841Z,3.90
2023-02-15T19:11:52.437Z,3.90
2023-02-15T19:14:29.492Z,3.90
2023-02-15T19:16:58.632Z,3.90
2023-02-15T19:19:27.308Z,3.90
2023-02-15T19:21:57.991Z,4.00
2023-02-15T19:24:34.274Z,4.00
2023-02-15T19:27:04.056Z,4.00
2023-02-15T19:29:32.721Z,4.00
2023-02-15T19:32:01.034Z,4.00
2023-02-15T19:34:29.426Z,4.00
2023-02-15T19:36:58.080Z,4.00
2023-02-15T19:39:29.456Z,4.00
2023-02-15T19:41:57.881Z,4.00
2023-02-15T19:44:27.596Z,4.00
2023-02-15T19:46:55.821Z,4.10
2023-02-15T19:49:24.020Z,4.10
2023-02-15T19:51:52.237Z,4.10
2023-02-15T19:54:28.221Z,4.10
2023-02-15T19:56:56.853Z,4.00
2023-02-15T19:59:28.341Z,4.10
2023-02-15T20:01:56.845Z,4.10
2023-02-15T20:04:25.619Z,4.10
2023-02-15T20:06:58.594Z,4.20
2023-02-15T20:09:29.963Z,4.20
2023-02-15T20:11:58.346Z,4.20
2023-02-15T20:14:28.311Z,4.10
2023-02-15T20:16:56.552Z,4.10
2023-02-15T20:19:24.773Z,4.10
2023-02-15T20:21:54.969Z,4.00
2023-02-15T20:24:25.941Z,4.00
2023-02-15T20:26:54.130Z,4.00
2023-02-15T20:29:22.294Z,3.90
2023-02-15T20:31:55.210Z,3.90
2023-02-15T20:34:23.601Z,3.90
2023-02-15T20:36:52.623Z,3.90
2023-02-15T20:39:21.122Z,3.90
2023-02-15T20:41:49.357Z,3.80
2023-02-15T20:44:23.818Z,3.80
2023-02-15T20:46:55.889Z,3.70
2023-02-15T20:49:25.204Z,3.70
2023-02-15T20:51:54.264Z,3.60
2023-02-15T20:54:24.424Z,3.60
2023-02-15T20:56:54.265Z,3.60
2023-02-15T20:59:25.488Z,3.60
2023-02-15T21:01:59.113Z,3.60
2023-02-15T21:04:31.438Z,3.50
2023-02-15T21:07:00.184Z,3.50
2023-02-15T21:09:28.711Z,3.40
2023-02-15T21:11:59.356Z,3.50
2023-02-15T21:14:29.407Z,3.40
2023-02-15T21:16:58.959Z,3.30
2023-02-15T21:19:27.208Z,3.30
2023-02-15T21:21:55.527Z,3.30
2023-02-15T21:24:26.138Z,3.20
2023-02-15T21:26:55.586Z,3.20
2023-02-15T21:29:25.696Z,3.20
2023-02-15T21:31:54.498Z,3.10
2023-02-15T21:34:26.237Z,3.10
2023-02-15T21:36:54.606Z,3.00
2023-02-15T21:39:25.210Z,3.10
2023-02-15T21:42:12.984Z,3.00
2023-02-15T21:44:59.248Z,3.00
2023-02-15T21:47:47.139Z,2.90
2023-02-15T21:50:37.709Z,2.90
2023-02-15T21:53:07.671Z,2.90
2023-02-15T21:55:35.893Z,2.90
2023-02-15T21:58:04.223Z,2.90
2023-02-15T22:00:33.864Z,2.80
2023-02-15T22:03:02.444Z,2.90
2023-02-15T22:05:33.577Z,2.80
2023-02-15T22:08:02.428Z,2.80
2023-02-15T22:10:33.475Z,2.70
2023-02-15T22:13:02.757Z,2.70
2023-02-15T22:15:37.113Z,2.70
2023-02-15T22:18:07.665Z,2.60
2023-02-15T22:20:37.242Z,2.70
2023-02-15T22:23:05.551Z,2.60
2023-02-15T22:25:36.352Z,2.60
2023-02-15T22:28:04.846Z,2.60
2023-02-15T22:30:35.218Z,2.60
2023-02-15T22:33:04.324Z,2.60
2023-02-15T22:35:34.597Z,2.60
2023-02-15T22:38:04.247Z,2.60
2023-02-15T22:40:34.638Z,2.50
2023-02-15T22:43:06.055Z,2.50
2023-02-15T22:45:36.525Z,2.50
2023-02-15T22:48:05.214Z,2.50
2023-02-15T22:50:39.242Z,2.50
2023-02-15T22:53:13.323Z,2.40
2023-02-15T22:55:43.882Z,2.40
2023-02-15T22:58:23.373Z,2.50
2023-02-15T23:00:52.241Z,2.40
2023-02-15T23:03:23.744Z,2.30
2023-02-15T23:05:58.401Z,2.30
2023-02-15T23:08:28.420Z,2.30
2023-02-15T23:10:59.419Z,2.30
2023-02-15T23:13:32.518Z,2.20
2023-02-15T23:16:02.915Z,2.20
2023-02-15T23:18:34.935Z,2.20
2023-02-15T23:21:14.757Z,2.20
2023-02-15T23:23:46.382Z,2.20
2023-02-15T23:26:19.429Z,2.20
2023-02-15T23:28:52.577Z,2.20
2023-02-15T23:31:23.928Z,2.10
2023-02-15T23:33:53.656Z,2.10
2023-02-15T23:36:31.378Z,2.00
2023-02-15T23:39:23.582Z,2.00
2023-02-15T23:41:51.846Z,2.00
2023-02-15T23:44:27.251Z,1.90
2023-02-15T23:47:04.232Z,1.90
2023-02-15T23:49:32.823Z,1.90
2023-02-15T23:52:03.166Z,1.90
2023-02-15T23:54:32.968Z,2.00
2023-02-15T23:57:02.657Z,2.00
2023-02-15T23:59:33.916Z,2.10
